createdAt,value
2019-04-07T00:00:27.689Z,65.34
2019-04-07T00:04:27.273Z,65.06
2019-04-07T00:06:27.129Z,65.50
2019-04-07T00:12:27.690Z,65.22
2019-04-07T00:14:27.289Z,65.19
2019-04-07T00:18:27.183Z,65.10
2019-04-07T00:20:30.877Z,64.98
2019-04-07T00:24:27.149Z,65.33
2019-04-07T00:26:27.152Z,64.95
2019-04-07T00:30:27.145Z,65.01
2019-04-07T00:32:27.353Z,64.81
2019-04-07T00:36:27.829Z,64.84
2019-04-07T00:38:27.144Z,65.20
2019-04-07T00:42:27.503Z,65.21
2019-04-07T00:44:32.706Z,65.25
2019-04-07T00:48:32.109Z,64.87
2019-04-07T00:50:27.169Z,65.21
2019-04-07T00:54:27.162Z,65.08
2019-04-07T00:56:27.148Z,65.16
2019-04-07T01:00:27.166Z,64.81
2019-04-07T01:02:27.631Z,65.01
2019-04-07T01:06:27.167Z,65.00
2019-04-07T01:08:27.167Z,65.18
2019-04-07T01:12:27.159Z,64.80
2019-04-07T01:14:27.769Z,65.28
2019-04-07T01:18:27.742Z,65.03
2019-04-07T01:20:27.168Z,64.87
2019-04-07T01:26:27.158Z,65.06
2019-04-07T01:28:32.720Z,64.80
2019-04-07T01:32:27.230Z,65.16
2019-04-07T01:34:27.391Z,65.01
2019-04-07T01:38:27.163Z,64.82
2019-04-07T01:40:27.223Z,64.82
2019-04-07T01:44:27.562Z,64.91
2019-04-07T01:46:27.398Z,64.67
2019-04-07T01:50:27.310Z,64.97
2019-04-07T01:52:27.355Z,64.76
2019-04-07T01:56:27.290Z,65.18
2019-04-07T01:58:27.363Z,64.77
2019-04-07T02:02:27.160Z,65.07
2019-04-07T02:04:27.205Z,64.88
2019-04-07T02:08:27.374Z,64.90
2019-04-07T02:10:27.432Z,64.90
2019-04-07T02:14:27.179Z,64.97
2019-04-07T02:16:27.774Z,64.74
2019-04-07T02:20:27.891Z,64.95
2019-04-07T02:22:27.185Z,64.62
2019-04-07T02:26:27.733Z,64.94
2019-04-07T02:28:32.978Z,64.82
2019-04-07T02:34:27.789Z,64.93
2019-04-07T02:36:30.708Z,64.73
2019-04-07T02:40:33.039Z,64.80
2019-04-07T02:42:27.212Z,64.91
2019-04-07T02:46:27.255Z,64.70
2019-04-07T02:48:27.184Z,64.76
2019-04-07T02:52:27.909Z,64.95
2019-04-07T02:54:27.455Z,65.00
2019-04-07T02:58:27.221Z,64.46
2019-04-07T03:00:29.735Z,64.72
2019-04-07T03:04:27.208Z,64.76
2019-04-07T03:06:40.417Z,64.70
2019-04-07T03:10:27.232Z,64.88
2019-04-07T03:12:27.579Z,64.85
2019-04-07T03:16:27.846Z,64.74
2019-04-07T03:18:27.391Z,64.74
2019-04-07T03:22:27.205Z,64.45
2019-04-07T03:24:27.208Z,64.38
2019-04-07T03:28:27.300Z,64.82
2019-04-07T03:30:30.469Z,64.95
2019-04-07T03:34:30.008Z,64.79
2019-04-07T03:36:29.981Z,64.69
2019-04-07T03:40:28.018Z,64.86
2019-04-07T03:42:32.699Z,64.70
2019-04-07T03:46:28.369Z,65.15
2019-04-07T03:48:28.196Z,65.14
2019-04-07T03:52:27.228Z,64.52
2019-04-07T03:54:28.308Z,64.53
2019-04-07T03:58:27.218Z,64.65
2019-04-07T04:00:27.563Z,64.90
2019-04-07T04:04:27.534Z,64.64
2019-04-07T04:06:28.122Z,64.74
2019-04-07T04:10:27.237Z,64.85
2019-04-07T04:12:31.690Z,64.76
2019-04-07T04:16:27.228Z,64.81
2019-04-07T04:18:27.236Z,64.80
2019-04-07T04:22:28.957Z,64.91
2019-04-07T04:24:27.254Z,64.80
2019-04-07T04:28:27.400Z,64.83
2019-04-07T04:30:27.753Z,64.88
2019-04-07T04:34:27.253Z,64.94
2019-04-07T04:36:31.621Z,64.60
2019-04-07T04:40:28.011Z,64.80
2019-04-07T04:42:27.237Z,64.85
2019-04-07T04:46:27.265Z,64.81
2019-04-07T04:48:27.831Z,64.65
2019-04-07T04:52:27.725Z,64.79
2019-04-07T04:54:27.792Z,64.83
2019-04-07T04:58:28.814Z,64.82
2019-04-07T05:00:27.243Z,64.49
2019-04-07T05:04:28.176Z,64.98
2019-04-07T05:06:27.769Z,64.89
2019-04-07T05:10:27.612Z,64.86
2019-04-07T05:12:27.475Z,64.57
2019-04-07T05:16:27.610Z,64.70
2019-04-07T05:18:27.753Z,64.77
2019-04-07T05:22:27.972Z,64.74
2019-04-07T05:24:27.403Z,64.92
2019-04-07T05:28:27.736Z,64.87
2019-04-07T05:30:27.265Z,64.62
2019-04-07T05:34:32.169Z,64.71
2019-04-07T05:36:27.724Z,64.96
2019-04-07T05:40:27.770Z,64.88
2019-04-07T05:42:32.687Z,64.60
2019-04-07T05:46:38.644Z,65.01
2019-04-07T05:48:27.954Z,64.75
2019-04-07T05:52:27.303Z,64.75
2019-04-07T05:54:27.481Z,64.87
2019-04-07T05:58:27.821Z,64.54
2019-04-07T06:00:27.266Z,65.13
2019-04-07T06:04:27.275Z,64.86
2019-04-07T06:06:27.889Z,64.54
2019-04-07T06:10:29.452Z,64.97
2019-04-07T06:12:30.204Z,64.83
2019-04-07T06:16:27.466Z,64.67
2019-04-07T06:18:31.940Z,65.28
2019-04-07T06:22:29.687Z,64.70
2019-04-07T06:24:30.921Z,64.81
2019-04-07T06:30:30.004Z,64.75
2019-04-07T06:32:27.283Z,64.98
2019-04-07T06:36:27.310Z,64.80
2019-04-07T06:38:33.640Z,64.62
2019-04-07T06:42:33.262Z,65.00
2019-04-07T06:44:27.871Z,64.79
2019-04-07T06:48:27.658Z,64.48
2019-04-07T06:50:27.913Z,64.54
2019-04-07T06:54:27.314Z,64.96
2019-04-07T06:56:27.297Z,64.63
2019-04-07T07:00:28.014Z,64.42
2019-04-07T07:02:29.495Z,64.69
2019-04-07T07:06:27.288Z,64.54
2019-04-07T07:08:28.298Z,64.80
2019-04-07T07:12:33.558Z,64.82
2019-04-07T07:14:35.432Z,64.83
2019-04-07T07:18:27.384Z,64.88
2019-04-07T07:20:31.231Z,64.57
2019-04-07T07:24:34.924Z,64.52
2019-04-07T07:26:28.294Z,64.74
2019-04-07T07:30:27.309Z,64.35
2019-04-07T07:32:28.014Z,64.71
2019-04-07T07:36:28.453Z,64.59
2019-04-07T07:38:31.090Z,64.46
2019-04-07T07:42:27.781Z,64.92
2019-04-07T07:44:27.798Z,64.70
2019-04-07T07:48:28.351Z,64.50
2019-04-07T07:50:28.354Z,64.77
2019-04-07T07:54:28.247Z,64.36
2019-04-07T07:56:27.313Z,64.64
2019-04-07T08:00:27.310Z,64.74
2019-04-07T08:02:29.078Z,64.58
2019-04-07T08:06:27.321Z,64.79
2019-04-07T08:08:28.777Z,64.40
2019-04-07T08:12:28.087Z,64.18
2019-04-07T08:14:27.635Z,64.92
2019-04-07T08:18:27.347Z,64.80
2019-04-07T08:20:27.450Z,64.45
2019-04-07T08:24:28.337Z,64.28
2019-04-07T08:26:27.836Z,64.21
2019-04-07T08:30:27.333Z,64.14
2019-04-07T08:32:28.733Z,64.06
2019-04-07T08:36:27.724Z,64.12
2019-04-07T08:38:28.212Z,63.92
2019-04-07T08:42:27.930Z,63.74
2019-04-07T08:44:29.321Z,63.98
2019-04-07T08:48:27.948Z,64.01
2019-04-07T08:50:28.616Z,63.71
2019-04-07T08:54:27.591Z,63.66
2019-04-07T08:56:27.786Z,63.75
2019-04-07T09:00:32.314Z,63.89
2019-04-07T09:02:28.425Z,63.79
2019-04-07T09:06:30.271Z,63.83
2019-04-07T09:08:27.350Z,64.15
2019-04-07T09:12:29.111Z,63.61
2019-04-07T09:14:27.343Z,63.36
2019-04-07T09:18:27.362Z,62.92
2019-04-07T09:20:41.897Z,63.52
2019-04-07T09:24:32.703Z,63.19
2019-04-07T09:26:27.365Z,63.00
2019-04-07T09:30:27.366Z,62.90
2019-04-07T09:32:27.805Z,63.22
2019-04-07T09:36:27.660Z,63.27
2019-04-07T09:38:27.451Z,63.10
2019-04-07T09:42:28.013Z,62.94
2019-04-07T09:44:27.842Z,63.10
2019-04-07T09:48:27.842Z,63.31
2019-04-07T09:50:28.539Z,63.15
2019-04-07T09:54:27.376Z,63.40
2019-04-07T09:56:33.490Z,63.41
2019-04-07T10:00:29.973Z,63.35
2019-04-07T10:02:30.952Z,63.53
2019-04-07T10:06:27.360Z,63.80
2019-04-07T10:08:28.138Z,64.31
2019-04-07T10:12:29.786Z,64.18
2019-04-07T10:14:27.388Z,64.44
2019-04-07T10:18:27.363Z,64.27
2019-04-07T10:20:27.553Z,64.43
2019-04-07T10:24:27.360Z,64.57
2019-04-07T10:26:27.357Z,64.47
2019-04-07T10:32:27.857Z,64.57
2019-04-07T10:34:27.423Z,64.55
2019-04-07T10:38:28.093Z,65.00
2019-04-07T10:40:29.759Z,64.71
2019-04-07T10:44:27.612Z,64.85
2019-04-07T10:46:28.291Z,65.06
2019-04-07T10:50:27.393Z,64.80
2019-04-07T10:52:28.210Z,64.97
2019-04-07T10:56:27.707Z,65.24
2019-04-07T10:58:27.921Z,64.96
2019-04-07T11:02:27.618Z,65.37
2019-04-07T11:04:27.401Z,65.22
2019-04-07T11:08:27.567Z,65.23
2019-04-07T11:10:34.469Z,65.17
2019-04-07T11:14:28.218Z,65.17
2019-04-07T11:22:27.410Z,64.99
2019-04-07T11:24:28.347Z,65.05
2019-04-07T11:28:28.546Z,65.23
2019-04-07T11:30:27.406Z,65.12
2019-04-07T11:36:27.429Z,65.08
2019-04-07T11:38:27.775Z,65.05
2019-04-07T11:42:27.440Z,65.21
2019-04-07T11:46:27.890Z,65.03
2019-04-07T11:48:27.542Z,65.19
2019-04-07T11:52:27.841Z,64.94
2019-04-07T11:54:27.432Z,65.04
2019-04-07T11:58:31.409Z,65.03
2019-04-07T12:00:33.326Z,65.36
2019-04-07T12:04:27.437Z,65.27
2019-04-07T12:06:28.107Z,65.29
2019-04-07T12:10:27.438Z,65.36
2019-04-07T12:12:27.408Z,65.29
2019-04-07T12:16:29.300Z,65.30
2019-04-07T12:18:27.872Z,64.98
2019-04-07T12:22:28.218Z,64.90
2019-04-07T12:24:28.621Z,64.89
2019-04-07T12:28:27.448Z,65.00
2019-04-07T12:30:28.216Z,64.94
2019-04-07T12:34:27.619Z,65.00
2019-04-07T12:36:30.627Z,65.12
2019-04-07T12:40:27.954Z,64.91
2019-04-07T12:42:27.777Z,65.02
2019-04-07T12:46:27.864Z,64.68
2019-04-07T12:48:30.030Z,64.62
2019-04-07T12:52:29.846Z,64.53
2019-04-07T12:54:27.743Z,64.35
2019-04-07T12:58:27.740Z,64.34
2019-04-07T13:00:27.647Z,64.51
2019-04-07T13:04:27.628Z,64.63
2019-04-07T13:06:27.630Z,64.87
2019-04-07T13:10:28.056Z,64.70
2019-04-07T13:12:33.240Z,65.03
2019-04-07T13:16:27.852Z,64.77
2019-04-07T13:18:30.344Z,64.99
2019-04-07T13:22:27.550Z,64.93
2019-04-07T13:24:33.123Z,65.12
2019-04-07T13:28:27.456Z,65.01
2019-04-07T13:30:28.170Z,65.17
2019-04-07T13:34:30.805Z,65.29
2019-04-07T13:36:27.996Z,65.47
2019-04-07T13:40:27.476Z,65.46
2019-04-07T13:42:27.858Z,65.82
2019-04-07T13:46:31.816Z,65.55
2019-04-07T13:48:32.338Z,65.39
2019-04-07T13:52:27.902Z,65.41
2019-04-07T13:54:30.575Z,65.79
2019-04-07T14:00:27.473Z,65.77
2019-04-07T14:02:30.216Z,65.89
2019-04-07T14:06:28.317Z,66.13
2019-04-07T14:08:29.091Z,66.04
2019-04-07T14:12:30.956Z,66.02
2019-04-07T14:14:27.871Z,66.02
2019-04-07T14:18:27.784Z,66.14
2019-04-07T14:20:27.479Z,66.42
2019-04-07T14:26:27.988Z,66.33
2019-04-07T14:28:27.761Z,66.06
2019-04-07T14:32:31.625Z,66.39
2019-04-07T14:34:30.399Z,65.96
2019-04-07T14:38:27.497Z,66.17
2019-04-07T14:40:27.963Z,66.57
2019-04-07T14:44:28.244Z,66.47
2019-04-07T14:46:28.452Z,66.40
2019-04-07T14:50:28.405Z,66.55
2019-04-07T14:52:28.293Z,66.48
2019-04-07T14:56:28.334Z,66.45
2019-04-07T14:58:28.114Z,66.63
2019-04-07T15:02:27.979Z,66.74
2019-04-07T15:04:27.690Z,66.57
2019-04-07T15:08:30.373Z,66.75
2019-04-07T15:10:32.924Z,67.09
2019-04-07T15:14:31.415Z,66.93
2019-04-07T15:16:28.334Z,67.18
2019-04-07T15:20:28.142Z,66.81
2019-04-07T15:22:29.985Z,66.83
2019-04-07T15:26:28.195Z,66.57
2019-04-07T15:28:30.615Z,66.76
2019-04-07T15:32:34.572Z,67.21
2019-04-07T15:34:33.204Z,66.72
2019-04-07T15:40:28.147Z,66.93
2019-04-07T15:42:38.815Z,66.65
2019-04-07T15:46:27.543Z,66.82
2019-04-07T15:48:27.546Z,66.87
2019-04-07T15:52:27.549Z,66.87
2019-04-07T15:54:32.592Z,66.96
2019-04-07T15:58:28.473Z,66.37
2019-04-07T16:00:28.340Z,66.60
2019-04-07T16:04:29.282Z,66.46
2019-04-07T16:06:48.765Z,66.75
2019-04-07T16:10:28.010Z,66.68
2019-04-07T16:12:27.553Z,66.68
2019-04-07T16:16:29.187Z,66.51
2019-04-07T16:18:28.450Z,66.53
2019-04-07T16:22:27.785Z,66.39
2019-04-07T16:24:29.259Z,66.47
2019-04-07T16:28:28.432Z,66.32
2019-04-07T16:30:27.589Z,66.48
2019-04-07T16:34:28.368Z,66.55
2019-04-07T16:36:30.254Z,66.55
2019-04-07T16:40:28.058Z,66.44
2019-04-07T16:43:01.292Z,66.18
2019-04-07T16:46:28.284Z,66.32
2019-04-07T16:48:28.311Z,66.19
2019-04-07T16:52:31.090Z,66.13
2019-04-07T16:54:32.520Z,66.34
2019-04-07T16:58:27.689Z,66.24
2019-04-07T17:00:27.998Z,66.07
2019-04-07T17:04:30.015Z,65.99
2019-04-07T17:06:35.397Z,66.30
2019-04-07T17:10:32.343Z,66.24
2019-04-07T17:12:27.601Z,65.92
2019-04-07T17:16:27.985Z,65.92
2019-04-07T17:18:27.587Z,66.05
2019-04-07T17:22:27.619Z,66.26
2019-04-07T17:24:36.027Z,66.12
2019-04-07T17:28:32.745Z,66.00
2019-04-07T17:30:28.958Z,66.00
2019-04-07T17:34:27.596Z,66.07
2019-04-07T17:36:28.221Z,65.75
2019-04-07T17:40:27.597Z,66.04
2019-04-07T17:42:32.384Z,66.11
2019-04-07T17:46:28.469Z,65.90
2019-04-07T17:48:37.531Z,65.86
2019-04-07T17:52:31.995Z,65.77
2019-04-07T17:54:28.843Z,65.91
2019-04-07T17:58:27.627Z,66.02
2019-04-07T18:00:28.037Z,65.77
2019-04-07T18:04:34.612Z,65.73
2019-04-07T18:06:31.299Z,65.79
2019-04-07T18:10:28.603Z,65.63
2019-04-07T18:12:27.636Z,65.73
2019-04-07T18:16:28.659Z,65.65
2019-04-07T18:18:28.260Z,65.63
2019-04-07T18:22:28.564Z,65.90
2019-04-07T18:24:37.699Z,65.65
2019-04-07T18:28:39.292Z,65.65
2019-04-07T18:30:33.313Z,65.76
2019-04-07T18:34:28.554Z,65.69
2019-04-07T18:36:27.643Z,65.82
2019-04-07T18:40:33.568Z,65.71
2019-04-07T18:42:27.652Z,65.76
2019-04-07T18:46:27.941Z,65.87
2019-04-07T18:48:32.245Z,65.69
2019-04-07T18:52:28.079Z,65.88
2019-04-07T18:54:30.777Z,65.72
2019-04-07T18:58:33.244Z,65.65
2019-04-07T19:00:31.111Z,65.67
2019-04-07T19:04:28.383Z,65.77
2019-04-07T19:06:27.657Z,65.77
2019-04-07T19:10:27.975Z,65.83
2019-04-07T19:12:28.671Z,65.74
2019-04-07T19:16:27.764Z,65.79
2019-04-07T19:18:28.305Z,65.84
2019-04-07T19:22:32.508Z,65.77
2019-04-07T19:24:31.387Z,65.79
2019-04-07T19:28:28.373Z,65.80
2019-04-07T19:30:28.245Z,65.82
2019-04-07T19:34:30.679Z,65.75
2019-04-07T19:36:27.654Z,65.77
2019-04-07T19:40:28.888Z,65.70
2019-04-07T19:42:29.849Z,65.70
2019-04-07T19:46:29.134Z,65.62
2019-04-07T19:48:27.673Z,65.64
2019-04-07T19:52:27.722Z,65.64
2019-04-07T19:54:27.676Z,65.65
2019-04-07T19:58:35.274Z,65.58
2019-04-07T20:00:28.008Z,65.52
2019-04-07T20:04:28.447Z,65.48
2019-04-07T20:06:27.967Z,65.31
2019-04-07T20:10:33.882Z,65.26
2019-04-07T20:12:35.519Z,65.41
2019-04-07T20:16:36.692Z,65.30
2019-04-07T20:18:29.618Z,65.23
2019-04-07T20:22:27.663Z,65.06
2019-04-07T20:24:38.046Z,65.13
2019-04-07T20:28:32.506Z,64.99
2019-04-07T20:30:31.510Z,65.06
2019-04-07T20:34:30.804Z,64.80
2019-04-07T20:36:27.810Z,64.89
2019-04-07T20:42:27.687Z,64.83
2019-04-07T20:44:33.668Z,64.83
2019-04-07T20:48:31.586Z,64.79
2019-04-07T20:50:30.040Z,64.73
2019-04-07T20:54:34.079Z,64.57
2019-04-07T20:56:27.727Z,64.59
2019-04-07T21:00:28.531Z,64.40
2019-04-07T21:02:27.693Z,64.31
2019-04-07T21:06:29.915Z,64.36
2019-04-07T21:08:33.576Z,64.17
2019-04-07T21:12:33.518Z,64.22
2019-04-07T21:14:32.240Z,64.19
2019-04-07T21:18:31.381Z,63.97
2019-04-07T21:20:38.462Z,64.02
2019-04-07T21:24:33.475Z,63.99
2019-04-07T21:26:28.722Z,63.83
2019-04-07T21:30:27.748Z,63.84
2019-04-07T21:32:27.754Z,63.82
2019-04-07T21:36:28.049Z,63.62
2019-04-07T21:38:29.825Z,63.55
2019-04-07T21:42:32.396Z,63.65
2019-04-07T21:44:29.207Z,63.48
2019-04-07T21:48:30.258Z,63.53
2019-04-07T21:50:32.169Z,63.48
2019-04-07T21:54:28.154Z,63.25
2019-04-07T21:56:28.532Z,63.42
2019-04-07T22:00:30.998Z,63.36
2019-04-07T22:02:27.732Z,63.20
2019-04-07T22:06:29.549Z,63.26
2019-04-07T22:08:28.473Z,63.00
2019-04-07T22:12:30.149Z,63.00
2019-04-07T22:14:32.525Z,62.98
2019-04-07T22:18:27.738Z,63.08
2019-04-07T22:20:27.866Z,62.81
2019-04-07T22:24:31.304Z,62.72
2019-04-07T22:26:27.739Z,62.76
2019-04-07T22:30:27.776Z,62.68
2019-04-07T22:32:27.742Z,62.68
2019-04-07T22:36:27.742Z,62.48
2019-04-07T22:38:27.763Z,62.38
2019-04-07T22:42:27.755Z,62.49
2019-04-07T22:48:28.444Z,62.41
2019-04-07T22:50:35.565Z,62.47
2019-04-07T22:54:30.383Z,62.38
2019-04-07T22:56:27.989Z,62.28
2019-04-07T23:00:28.707Z,62.40
2019-04-07T23:02:27.759Z,62.49
2019-04-07T23:06:28.550Z,62.34
2019-04-07T23:08:28.514Z,62.12
2019-04-07T23:12:28.561Z,62.33
2019-04-07T23:14:27.784Z,62.11
2019-04-07T23:18:27.761Z,62.29
2019-04-07T23:20:32.331Z,62.02
2019-04-07T23:24:27.780Z,62.29
2019-04-07T23:26:27.786Z,61.87
2019-04-07T23:30:27.881Z,62.15
2019-04-07T23:32:27.799Z,61.91
2019-04-07T23:36:28.409Z,61.82
2019-04-07T23:38:34.601Z,61.88
2019-04-07T23:42:32.847Z,61.81
2019-04-07T23:44:27.777Z,61.76
2019-04-07T23:48:28.401Z,61.69
2019-04-07T23:50:32.187Z,61.66
2019-04-07T23:54:33.116Z,61.83
2019-04-07T23:56:29.428Z,61.58
